Time;durP1;ratioP1;P1;durP2;ratioP2;P2;SDS_P1;SDS_P2;PMS_P1;PMS_P2;Temp;Humidity;BMP_temperature;BMP_pressure;BME280_temperature;BME280_humidity;BME280_pressure;Samples;Min_cycle;Max_cycle;Signal;HPM_P1;HPM_P2
2022/04/28 00:02:39;;;;;;;;;34.00;28.00;;;;;15.20;49.28;99460.00;6293337;27;98365;-73
2022/04/28 00:05:44;;;;;;;;;33.60;30.00;;;;;15.17;49.30;99457.78;6294177;27;99504;-74
2022/04/28 00:08:50;;;;;;;;;40.00;33.00;;;;;15.14;49.24;99455.53;6314356;27;96911;-73
2022/04/28 00:11:54;;;;;;;;;34.00;30.00;;;;;15.10;49.30;99457.09;6333919;27;96919;-74
2022/04/28 00:14:59;;;;;;;;;36.00;30.00;;;;;15.05;49.66;99459.69;6311995;27;96944;-74
2022/04/28 00:18:03;;;;;;;;;35.20;31.00;;;;;15.06;49.64;99464.03;6319736;27;96790;-73
2022/04/28 00:21:06;;;;;;;;;36.50;31.50;;;;;15.04;49.66;99464.28;6319597;27;97690;-74
2022/04/28 00:24:10;;;;;;;;;36.60;31.60;;;;;15.05;49.63;99462.41;6332556;27;98148;-74
2022/04/28 00:27:13;;;;;;;;;35.40;30.40;;;;;15.02;49.64;99454.72;6298364;27;98024;-73
2022/04/28 00:30:18;;;;;;;;;38.00;30.00;;;;;15.01;49.62;99456.59;6336927;27;97567;-74
2022/04/28 00:33:21;;;;;;;;;33.60;29.00;;;;;14.97;49.82;99452.69;6318862;27;97449;-74
2022/04/28 00:36:25;;;;;;;;;33.00;30.00;;;;;14.43;49.40;99372.44;6330813;27;97463;-73
2022/04/28 00:39:28;;;;;;;;;34.00;30.00;;;;;14.96;49.70;99452.94;6310967;27;99742;-74
2022/04/28 00:42:32;;;;;;;;;34.80;28.40;;;;;14.94;49.76;99455.91;6325511;27;97302;-74
2022/04/28 00:45:38;;;;;;;;;33.60;30.00;;;;;14.93;49.78;99456.13;6283640;27;100448;-74
2022/04/28 00:52:03;;;;;;;;;33.40;30.00;;;;;14.93;49.49;99459.66;6334350;27;97134;-74
2022/04/28 00:55:09;;;;;;;;;38.20;32.00;;;;;14.93;49.46;99458.84;6313365;27;97311;-75
2022/04/28 00:58:13;;;;;;;;;37.40;31.80;;;;;14.92;49.46;99459.91;6296304;27;99149;-74
2022/04/28 01:01:18;;;;;;;;;36.00;32.00;;;;;14.92;49.52;99463.44;6318756;27;98094;-74
2022/04/28 01:04:21;;;;;;;;;36.00;30.20;;;;;14.67;49.36;99431.09;6336095;27;98532;-75
2022/04/28 01:07:25;;;;;;;;;36.00;31.00;;;;;14.90;49.73;99457.44;6316946;27;97122;-74
2022/04/28 01:10:29;;;;;;;;;34.00;30.00;;;;;14.89;49.75;99457.66;6300833;27;97008;-73
2022/04/28 01:13:33;;;;;;;;;40.00;32.00;;;;;14.80;49.73;99459.91;6314653;27;98321;-74
2022/04/28 01:16:45;;;;;;;;;38.80;31.00;;;;;14.86;49.96;99469.81;6310286;27;97071;-74
2022/04/28 01:19:48;;;;;;;;;39.20;32.00;;;;;14.84;50.07;99471.13;6312286;27;96505;-74
2022/04/28 01:22:54;;;;;;;;;41.00;33.00;;;;;14.83;49.95;99461.31;6317401;27;97827;-74
2022/04/28 01:25:57;;;;;;;;;40.40;32.00;;;;;14.82;50.05;99465.09;6296302;27;98535;-74
2022/04/28 01:29:00;;;;;;;;;46.40;35.40;;;;;14.66;50.14;99445.72;6292333;27;98065;-74
2022/04/28 01:32:04;;;;;;;;;43.50;35.00;;;;;14.78;50.14;99464.75;6292835;27;97476;-75
2022/04/28 01:35:13;;;;;;;;;44.00;33.60;;;;;14.72;50.47;99468.38;6310282;27;96812;-75
2022/04/28 01:38:18;;;;;;;;;44.00;34.50;;;;;14.49;50.14;99442.06;6316033;27;96910;-76
2022/04/28 01:41:22;;;;;;;;;37.00;33.00;;;;;14.38;50.38;99428.44;6314205;27;97105;-74
2022/04/28 01:44:25;;;;;;;;;42.40;34.40;;;;;14.65;50.61;99464.97;6287952;27;96882;-75
2022/04/28 01:47:29;;;;;;;;;41.60;33.00;;;;;14.65;50.59;99467.69;6305652;27;97099;-75
2022/04/28 01:57:56;;;;;;;;;44.60;35.60;;;;;14.62;50.70;99468.97;6309325;27;98011;-73
2022/04/28 02:01:18;;;;;;;;;40.80;34.80;;;;;14.58;50.71;99470.50;6337974;27;97463;-74
2022/04/28 02:04:22;;;;;;;;;48.60;39.00;;;;;14.56;50.88;99477.22;6322484;27;97161;-75
2022/04/28 02:07:28;;;;;;;;;48.00;36.00;;;;;14.44;50.64;99449.22;6319415;27;98035;-73
2022/04/28 02:10:33;;;;;;;;;45.00;35.00;;;;;14.59;50.73;99469.44;6294026;27;97249;-73
2022/04/28 02:13:40;;;;;;;;;46.25;36.50;;;;;14.58;50.91;99470.50;6322031;27;97509;-74
2022/04/28 02:17:02;;;;;;;;;45.60;35.60;;;;;14.60;50.57;99475.69;6312922;27;99857;-74
2022/04/28 02:20:11;;;;;;;;;42.50;35.00;;;;;14.52;50.61;99474.13;6306644;27;98046;-74
2022/04/28 02:23:17;;;;;;;;;45.40;35.00;;;;;14.53;50.57;99474.97;6306180;27;100369;-74
2022/04/28 02:26:23;;;;;;;;;43.00;35.00;;;;;14.48;50.69;99466.69;6306179;27;96496;-74
2022/04/28 02:29:27;;;;;;;;;44.00;33.20;;;;;14.46;50.44;99469.66;6299522;27;97636;-75
2022/04/28 02:33:08;;;;;;;;;45.40;36.00;;;;;14.45;50.57;99470.72;6286085;27;97439;-75
2022/04/28 02:35:55;;;;;;;;;41.80;34.80;;;;;14.43;50.62;99470.09;6301697;27;96521;-74
2022/04/28 02:38:58;;;;;;;;;42.50;35.00;;;;;14.43;50.49;99478.25;6291304;27;97522;-75
2022/04/28 02:42:04;;;;;;;;;45.00;35.60;;;;;14.43;50.39;99475.53;6280324;27;98365;-74
2022/04/28 02:45:08;;;;;;;;;42.50;35.00;;;;;14.42;50.55;99473.03;6283372;27;96817;-74
2022/04/28 02:48:14;;;;;;;;;44.67;35.00;;;;;14.38;50.64;99480.81;6289522;27;99968;-74
2022/04/28 02:51:18;;;;;;;;;41.00;34.50;;;;;14.36;50.81;99482.97;6311446;27;97398;-74
2022/04/28 02:54:21;;;;;;;;;43.40;36.00;;;;;14.34;50.57;99482.31;6287478;27;97145;-73
2022/04/28 02:57:26;;;;;;;;;41.80;35.00;;;;;14.29;50.59;99487.59;6288131;27;97477;-74
2022/04/28 03:00:30;;;;;;;;;44.00;36.00;;;;;14.29;50.77;99482.19;6270912;27;97838;-74
2022/04/28 03:03:37;;;;;;;;;41.20;34.00;;;;;14.32;50.68;99485.25;6294830;27;96983;-74
2022/04/28 03:13:26;;;;;;;;;44.00;35.00;;;;;14.20;50.68;99489.00;6308280;27;97528;-74
2022/04/28 03:16:32;;;;;;;;;45.25;35.00;;;;;14.16;50.79;99491.34;6304579;27;96680;-73
2022/04/28 03:19:38;;;;;;;;;47.50;37.25;;;;;14.12;50.75;99498.25;6301417;27;96696;-74
2022/04/28 03:22:43;;;;;;;;;44.40;35.20;;;;;14.08;50.88;99497.06;6315011;27;97424;-74
2022/04/28 03:25:48;;;;;;;;;43.50;35.50;;;;;14.06;51.09;99498.38;6335389;27;97036;-74
2022/04/28 03:28:53;;;;;;;;;44.20;35.80;;;;;14.02;50.79;99500.72;6313829;27;97804;-74
2022/04/28 03:31:58;;;;;;;;;46.00;37.00;;;;;13.89;51.35;99496.28;6291962;27;97575;-73
2022/04/28 03:35:14;;;;;;;;;45.60;35.00;;;;;13.90;51.46;99513.38;6318995;27;97519;-73
2022/04/28 03:38:17;;;;;;;;;46.80;35.00;;;;;13.89;51.47;99498.16;6310646;27;98075;-74
2022/04/28 03:41:21;;;;;;;;;44.50;35.50;;;;;13.87;51.54;99501.13;6307005;27;97489;-74
2022/04/28 03:44:26;;;;;;;;;44.40;35.00;;;;;13.86;51.54;99493.22;6296768;27;97027;-74
2022/04/28 03:47:32;;;;;;;;;46.00;36.00;;;;;13.64;51.53;99470.34;6320401;27;96433;-73
2022/04/28 03:50:36;;;;;;;;;42.50;36.00;;;;;13.84;51.33;99503.44;6319700;27;97319;-74
2022/04/28 03:53:39;;;;;;;;;49.00;38.00;;;;;13.83;51.56;99494.47;6315498;27;96591;-74
2022/04/28 03:56:43;;;;;;;;;45.00;35.00;;;;;13.83;51.63;99501.78;6320410;27;97636;-74
2022/04/28 03:59:48;;;;;;;;;43.00;34.00;;;;;13.84;51.42;99506.97;6319917;27;96879;-74
2022/04/28 04:03:03;;;;;;;;;44.00;36.00;;;;;13.85;51.35;99511.34;6337114;27;96462;-74
2022/04/28 04:06:07;;;;;;;;;41.80;34.40;;;;;13.87;51.42;99503.84;6319444;27;96514;-74
2022/04/28 04:09:11;;;;;;;;;45.00;36.00;;;;;13.91;51.37;99506.06;6319081;27;97333;-73
2022/04/28 04:12:14;;;;;;;;;44.20;34.60;;;;;13.94;51.21;99511.03;6336803;27;96937;-74
2022/04/28 04:15:42;;;;;;;;;43.00;35.00;;;;;13.93;51.07;99512.91;6270370;27;98302;-74
2022/04/28 04:19:12;;;;;;;;;45.00;35.25;;;;;13.97;51.29;99527.69;6304515;27;97168;-73
2022/04/28 04:22:22;;;;;;;;;42.25;35.00;;;;;14.05;51.17;99521.13;6315726;27;96907;-74
2022/04/28 04:25:26;;;;;;;;;46.00;36.00;;;;;14.12;51.16;99528.09;6319525;27;97866;-73
2022/04/28 04:28:42;;;;;;;;;47.00;36.80;;;;;14.27;51.09;99535.81;6301541;27;99532;-73
2022/04/28 04:32:24;;;;;;;;;48.00;37.00;;;;;14.32;51.00;99511.53;6322555;27;97976;-73
2022/04/28 04:35:38;;;;;;;;;45.00;36.00;;;;;14.55;50.92;99540.69;6298208;27;99590;-74
2022/04/28 04:38:42;;;;;;;;;45.80;36.00;;;;;14.65;50.52;99532.81;6315827;27;97034;-74
2022/04/28 04:41:45;;;;;;;;;45.80;36.00;;;;;14.70;49.96;99549.22;6317602;27;98541;-75
2022/04/28 04:44:49;;;;;;;;;42.00;35.00;;;;;14.81;49.67;99548.41;6317179;27;96573;-75
2022/04/28 04:47:58;;;;;;;;;45.80;36.00;;;;;14.90;49.51;99546.19;6318072;27;98681;-74
2022/04/28 04:51:24;;;;;;;;;41.80;35.20;;;;;14.77;49.37;99509.22;6297226;27;99315;-74
2022/04/28 04:54:43;;;;;;;;;46.50;36.00;;;;;15.16;48.97;99548.47;6319013;27;97177;-74
2022/04/28 04:57:46;;;;;;;;;44.60;34.40;;;;;15.25;48.58;99549.75;6310861;27;96818;-74
2022/04/28 05:00:51;;;;;;;;;46.60;36.20;;;;;14.74;48.34;99468.97;6316887;27;96746;-75
2022/04/28 05:04:02;;;;;;;;;47.00;37.60;;;;;15.31;48.41;99554.25;6309324;27;98486;-73
2022/04/28 05:07:21;;;;;;;;;45.00;37.00;;;;;15.42;48.26;99555.31;6310472;27;97559;-74
2022/04/28 05:10:25;;;;;;;;;45.50;36.00;;;;;15.36;47.94;99521.78;6314348;27;97222;-74
2022/04/28 05:13:30;;;;;;;;;48.20;37.00;;;;;15.57;47.83;99542.94;6291826;27;97047;-73
2022/04/28 05:16:36;;;;;;;;;42.00;35.25;;;;;15.78;47.52;99555.09;6331785;27;97418;-73
2022/04/28 05:20:01;;;;;;;;;43.80;35.80;;;;;15.87;47.15;99566.41;6317850;27;97036;-74
2022/04/28 05:23:23;;;;;;;;;42.80;35.80;;;;;15.90;47.14;99565.94;6338736;27;97926;-74
2022/04/28 05:26:45;;;;;;;;;41.50;35.50;;;;;15.92;46.86;99571.97;6334353;27;97367;-74
2022/04/28 05:30:17;;;;;;;;;44.40;35.00;;;;;15.95;47.42;99585.91;6299322;27;99273;-74
2022/04/28 05:33:47;;;;;;;;;47.40;37.20;;;;;16.01;47.11;99571.34;6292918;27;98395;-74
2022/04/28 05:37:00;;;;;;;;;50.20;39.40;;;;;16.15;46.90;99579.25;6320036;27;99229;-74
2022/04/28 05:40:04;;;;;;;;;49.00;39.75;;;;;16.15;47.01;99560.19;6316952;27;96526;-74
2022/04/28 05:46:29;;;;;;;;;50.00;38.25;;;;;16.53;46.12;99586.78;6315866;27;98092;-75
2022/04/28 05:49:33;;;;;;;;;46.80;37.00;;;;;16.35;45.80;99538.84;6291596;27;98474;-74
2022/04/28 05:52:40;;;;;;;;;44.80;35.80;;;;;16.81;44.72;99589.53;6299063;27;97168;-74
2022/04/28 05:55:43;;;;;;;;;47.40;38.00;;;;;17.05;44.94;99590.22;6321049;27;97078;-74
2022/04/28 05:58:47;;;;;;;;;34.00;30.25;;;;;17.26;43.30;99590.31;6321489;27;96501;-74
2022/04/28 06:02:09;;;;;;;;;38.67;32.67;;;;;17.41;41.86;99591.63;6315427;27;97581;-74
2022/04/28 06:05:13;;;;;;;;;27.75;26.00;;;;;17.54;41.36;99592.13;6315923;27;96484;-74
2022/04/28 06:08:18;;;;;;;;;31.00;26.50;;;;;17.70;40.65;99590.44;6304778;27;97816;-75
2022/04/28 06:11:22;;;;;;;;;30.20;28.00;;;;;17.64;40.13;99567.75;6305559;27;97758;-74
2022/04/28 06:14:26;;;;;;;;;36.00;30.40;;;;;17.98;40.83;99598.50;6309843;27;97626;-75
2022/04/28 06:18:00;;;;;;;;;37.80;32.00;;;;;18.05;40.78;99590.94;6282898;27;96928;-74
2022/04/28 06:21:04;;;;;;;;;36.00;32.25;;;;;18.12;40.19;99596.22;6307697;27;97938;-74
2022/04/28 06:24:12;;;;;;;;;36.40;30.60;;;;;18.26;40.05;99599.41;6295974;27;99496;-74
2022/04/28 06:27:16;;;;;;;;;29.80;27.00;;;;;18.29;39.02;99594.25;6313064;27;96716;-75
2022/04/28 06:30:25;;;;;;;;;29.00;25.40;;;;;18.31;38.43;99594.81;6296130;27;97885;-74
2022/04/28 06:33:41;;;;;;;;;32.00;27.40;;;;;18.43;37.97;99603.69;6275433;27;97540;-74
2022/04/28 06:37:05;;;;;;;;;27.00;24.25;;;;;18.56;37.64;99594.31;6289935;27;97166;-73
2022/04/28 06:40:12;;;;;;;;;28.80;25.00;;;;;18.88;37.52;99600.66;6297034;27;97590;-75
2022/04/28 06:43:16;;;;;;;;;31.80;26.00;;;;;19.10;36.99;99592.41;6313507;27;96527;-74
2022/04/28 06:46:54;;;;;;;;;23.00;22.40;;;;;19.30;36.17;99599.97;6259428;27;97848;-73
2022/04/28 06:50:00;;;;;;;;;25.00;22.60;;;;;19.48;35.86;99605.03;6315690;27;96889;-75
2022/04/28 06:53:22;;;;;;;;;25.40;23.00;;;;;19.57;35.58;99589.78;6308099;27;96869;-75
2022/04/28 06:56:48;;;;;;;;;23.60;20.60;;;;;19.97;35.11;99602.06;6287611;27;98193;-74
2022/04/28 06:59:53;;;;;;;;;24.40;22.60;;;;;20.29;34.75;99598.13;6268529;27;99942;-74
2022/04/28 07:02:57;;;;;;;;;21.60;20.00;;;;;20.70;35.61;99595.53;6279685;27;99518;-75
2022/04/28 07:06:04;;;;;;;;;22.00;19.00;;;;;20.98;33.10;99597.78;6296016;27;99187;-74
2022/04/28 07:09:07;;;;;;;;;18.00;18.00;;;;;21.24;32.98;99604.16;6313319;27;97190;-74
2022/04/28 07:12:14;;;;;;;;;17.25;15.00;;;;;21.52;32.67;99594.53;6308978;27;97940;-74
2022/04/28 07:15:40;;;;;;;;;16.40;15.40;;;;;21.84;32.04;99607.94;6301024;27;98568;-74
2022/04/28 07:18:44;;;;;;;;;14.60;12.60;;;;;21.95;31.84;99576.63;6308918;27;98354;-74
2022/04/28 07:21:47;;;;;;;;;16.20;15.20;;;;;22.34;30.92;99593.22;6307744;27;97780;-74
2022/04/28 07:24:51;;;;;;;;;18.00;15.00;;;;;22.73;29.58;99612.56;6309135;27;97087;-74
2022/04/28 07:27:56;;;;;;;;;15.40;13.40;;;;;22.94;30.50;99610.53;6310025;27;96803;-74
2022/04/28 07:31:19;;;;;;;;;15.60;13.60;;;;;23.16;29.06;99616.44;6309533;27;96706;-72
2022/04/28 07:34:52;;;;;;;;;17.75;15.50;;;;;23.45;30.10;99614.59;6223747;27;96636;-73
2022/04/28 07:38:14;;;;;;;;;14.00;12.67;;;;;23.66;29.67;99618.78;6309900;27;97223;-72
2022/04/28 07:41:41;;;;;;;;;15.60;15.40;;;;;23.82;27.69;99616.69;6291213;27;99745;-74
2022/04/28 07:44:46;;;;;;;;;13.00;11.00;;;;;23.99;28.05;99619.84;6309176;27;96564;-74
2022/04/28 07:47:50;;;;;;;;;13.00;11.00;;;;;24.09;26.84;99597.66;6309450;27;97082;-73
2022/04/28 07:50:58;;;;;;;;;13.75;11.00;;;;;24.17;26.96;99599.81;6311064;27;99166;-73
2022/04/28 07:54:04;;;;;;;;;15.50;13.50;;;;;24.68;26.98;99625.94;6280382;27;98105;-74
2022/04/28 07:57:08;;;;;;;;;14.40;12.40;;;;;24.75;26.28;99610.66;6276727;27;98492;-73
2022/04/28 08:00:15;;;;;;;;;15.00;14.00;;;;;24.85;26.83;99623.47;6294667;27;99574;-73
2022/04/28 08:03:19;;;;;;;;;10.40;10.00;;;;;24.87;25.21;99604.72;6309574;27;97271;-72
2022/04/28 08:06:27;;;;;;;;;8.00;8.00;;;;;25.04;24.69;99602.25;6311120;27;97056;-74
2022/04/28 08:09:32;;;;;;;;;9.40;8.00;;;;;25.19;27.00;99620.50;6309563;27;98399;-69
2022/04/28 08:12:41;;;;;;;;;8.00;7.00;;;;;25.21;23.34;99616.34;6312265;27;97524;-75
2022/04/28 08:16:11;;;;;;;;;8.50;7.00;;;;;25.40;24.04;99619.06;6314703;27;96591;-76
2022/04/28 08:19:18;;;;;;;;;6.20;6.00;;;;;25.51;23.73;99616.97;6320124;27;96687;-74
2022/04/28 08:22:29;;;;;;;;;6.00;5.00;;;;;25.79;23.40;99615.94;6293950;27;98041;-74
2022/04/28 08:25:32;;;;;;;;;7.00;6.00;;;;;26.12;23.76;99613.91;6276648;27;99645;-75
2022/04/28 08:28:36;;;;;;;;;5.00;5.00;;;;;26.24;21.57;99611.50;6291774;27;98452;-75
2022/04/28 08:31:43;;;;;;;;;5.75;5.75;;;;;26.41;22.10;99621.94;6310325;27;96501;-73
2022/04/28 08:34:51;;;;;;;;;6.00;5.00;;;;;26.21;21.79;99617.59;6313084;27;99452;-75
2022/04/28 08:37:55;;;;;;;;;6.20;5.80;;;;;26.57;23.16;99615.78;6320286;27;96593;-75
2022/04/28 08:41:01;;;;;;;;;6.40;6.00;;;;;26.26;20.35;99620.28;6303087;27;97730;-74
2022/04/28 08:44:27;;;;;;;;;6.25;5.75;;;;;26.39;21.87;99600.09;6257298;27;97756;-75
2022/04/28 08:47:44;;;;;;;;;7.00;6.00;;;;;26.79;22.38;99605.88;6314805;27;96701;-73
2022/04/28 08:51:05;;;;;;;;;8.00;7.00;;;;;27.12;21.38;99624.00;6331691;27;97599;-73
2022/04/28 08:54:11;;;;;;;;;7.60;6.60;;;;;27.30;21.38;99608.31;6294519;27;97958;-74
2022/04/28 08:57:15;;;;;;;;;8.00;7.60;;;;;26.89;20.43;99614.00;6298488;27;97107;-72
2022/04/28 09:00:19;;;;;;;;;7.00;7.00;;;;;26.58;21.80;99608.31;6311508;27;96518;-73
2022/04/28 09:03:53;;;;;;;;;9.00;7.00;;;;;26.84;21.46;99608.53;6310369;27;99612;-74
2022/04/28 09:07:49;;;;;;;;;5.60;5.60;;;;;27.12;20.76;99612.91;6193789;27;96989;-73
2022/04/28 09:11:18;;;;;;;;;8.00;8.00;;;;;27.48;20.41;99602.59;6338732;27;97704;-74
2022/04/28 09:15:11;;;;;;;;;8.00;7.60;;;;;27.35;21.31;99595.19;6229868;28;97934;-74
2022/04/28 09:18:21;;;;;;;;;9.00;8.00;;;;;26.98;20.00;99615.72;6197455;27;97901;-72
2022/04/28 09:21:26;;;;;;;;;7.60;7.00;;;;;26.65;20.82;99606.75;6294077;27;97400;-73
2022/04/28 09:24:30;;;;;;;;;7.00;6.40;;;;;26.23;22.45;99594.09;6296638;27;96634;-74
2022/04/28 09:27:33;;;;;;;;;8.60;8.00;;;;;26.33;22.02;99601.38;6277973;27;98493;-73
2022/04/28 09:30:42;;;;;;;;;7.00;6.00;;;;;26.47;21.86;99612.41;6325065;27;97361;-74
2022/04/28 09:34:10;;;;;;;;;6.60;5.60;;;;;26.55;20.48;99608.91;6317668;27;96535;-74
2022/04/28 09:37:36;;;;;;;;;7.80;6.20;;;;;27.05;21.28;99616.09;6341698;27;96871;-74
2022/04/28 09:44:01;;;;;;;;;6.50;5.00;;;;;27.41;20.68;99601.41;6310382;27;96626;-74
2022/04/28 09:47:10;;;;;;;;;5.25;5.25;;;;;27.27;21.11;99611.72;6283761;27;98371;-73
2022/04/28 09:50:15;;;;;;;;;5.50;5.00;;;;;27.03;20.21;99612.00;6310691;27;96769;-72
2022/04/28 09:53:39;;;;;;;;;6.00;5.40;;;;;27.22;20.75;99604.34;6304649;27;96982;-74
2022/04/28 09:57:17;;;;;;;;;6.00;5.00;;;;;27.00;20.04;99607.09;6303497;27;97227;-72
2022/04/28 10:00:21;;;;;;;;;5.00;4.75;;;;;26.88;19.85;99612.38;6311444;27;96638;-74
2022/04/28 10:03:33;;;;;;;;;5.40;5.40;;;;;26.68;20.48;99610.84;6315652;27;96821;-75
2022/04/28 10:06:38;;;;;;;;;7.00;5.00;;;;;26.57;19.76;99613.03;6320002;27;98443;-74
2022/04/28 10:10:05;;;;;;;;;5.00;4.75;;;;;26.40;18.72;99612.00;6340183;27;96733;-72
2022/04/28 10:13:09;;;;;;;;;4.60;4.00;;;;;26.36;17.86;99610.97;6321839;27;97692;-73
2022/04/28 10:16:27;;;;;;;;;6.00;5.00;;;;;26.79;18.43;99605.88;6303647;27;99011;-74
2022/04/28 10:19:35;;;;;;;;;5.75;5.00;;;;;26.90;17.99;99574.94;6315125;27;96542;-74
2022/04/28 10:22:55;;;;;;;;;4.00;4.00;;;;;27.61;18.32;99605.66;6326642;27;96912;-75
2022/04/28 10:33:07;;;;;;;;;5.00;4.00;;;;;28.56;17.90;99610.47;6340672;27;97362;-72
2022/04/28 10:36:16;;;;;;;;;5.75;5.25;;;;;28.68;16.83;99602.34;6322791;27;97437;-73
2022/04/28 10:39:38;;;;;;;;;6.00;6.00;;;;;28.77;16.11;99600.44;6326012;27;96723;-75
2022/04/28 10:42:59;;;;;;;;;5.00;4.00;;;;;28.48;16.53;99608.50;6340980;27;97544;-73
2022/04/28 10:46:33;;;;;;;;;6.00;6.00;;;;;28.15;17.17;99608.03;6280594;27;96773;-75
2022/04/28 10:49:40;;;;;;;;;5.00;5.00;;;;;27.82;17.66;99604.78;6300751;27;99537;-73
2022/04/28 10:52:43;;;;;;;;;4.00;4.00;;;;;27.57;18.08;99606.25;6321446;27;99407;-74
2022/04/28 10:55:50;;;;;;;;;5.00;4.00;;;;;27.26;17.69;99610.91;6340705;27;96746;-73
2022/04/28 10:59:01;;;;;;;;;5.00;5.00;;;;;27.14;18.33;99599.56;6341828;27;96383;-73
2022/04/28 11:02:48;;;;;;;;;5.00;5.00;;;;;27.51;17.84;99598.41;6341169;27;96952;-74
2022/04/28 11:05:54;;;;;;;;;4.75;4.75;;;;;27.82;17.82;99590.91;6272516;27;96853;-74
2022/04/28 11:08:59;;;;;;;;;4.60;4.00;;;;;28.06;17.04;99596.06;6307272;27;97568;-73
2022/04/28 11:12:11;;;;;;;;;6.00;5.00;;;;;28.31;17.68;99603.72;6313079;27;97580;-73
2022/04/28 11:15:17;;;;;;;;;5.00;4.00;;;;;28.33;16.91;99601.44;6334748;27;96488;-73
2022/04/28 11:18:22;;;;;;;;;5.00;5.00;;;;;28.50;17.96;99608.97;6338169;27;96566;-74
2022/04/28 11:21:25;;;;;;;;;6.00;5.00;;;;;28.71;17.75;99600.88;6337631;27;96743;-73
2022/04/28 11:24:29;;;;;;;;;5.40;5.00;;;;;28.97;17.47;99606.50;6313298;27;97585;-73
2022/04/28 11:27:52;;;;;;;;;6.00;5.00;;;;;29.18;17.09;99602.72;6270105;27;96595;-73
2022/04/28 11:30:59;;;;;;;;;5.00;5.00;;;;;29.47;17.43;99595.72;6267322;27;99678;-74
2022/04/28 11:34:06;;;;;;;;;5.80;5.40;;;;;29.63;16.75;99594.03;6294339;27;96492;-75
2022/04/28 11:37:17;;;;;;;;;5.00;5.00;;;;;29.73;17.31;99599.22;6310120;27;96495;-75
2022/04/28 11:40:22;;;;;;;;;5.00;5.00;;;;;29.71;16.83;99590.44;6309966;27;97432;-75
2022/04/28 11:43:36;;;;;;;;;5.75;5.75;;;;;29.84;15.88;99592.19;6252488;27;96980;-75
2022/04/28 11:46:49;;;;;;;;;5.50;5.25;;;;;30.03;16.21;99584.28;6287559;27;96648;-72
2022/04/28 11:49:58;;;;;;;;;4.00;4.00;;;;;30.25;17.10;99599.88;6304038;27;96656;-73
2022/04/28 11:53:03;;;;;;;;;5.00;5.00;;;;;30.25;15.42;99572.06;6305737;27;97423;-73
2022/04/28 11:56:17;;;;;;;;;5.20;4.20;;;;;30.25;15.90;99588.75;6307214;27;97282;-75
2022/04/28 11:59:21;;;;;;;;;6.00;5.40;;;;;30.22;15.92;99595.00;6282182;27;96708;-74
2022/04/28 12:02:29;;;;;;;;;5.00;5.00;;;;;30.12;15.28;99590.63;6276408;27;96842;-74
2022/04/28 12:05:34;;;;;;;;;4.00;4.00;;;;;30.16;15.00;99587.16;6269270;27;96438;-75
2022/04/28 12:08:39;;;;;;;;;4.40;4.00;;;;;29.78;15.24;99576.81;6305889;27;96807;-75
2022/04/28 12:15:08;;;;;;;;;5.00;5.00;;;;;28.63;15.97;99577.53;6313808;27;96403;-72
2022/04/28 12:21:37;;;;;;;;;4.50;4.50;;;;;27.74;16.33;99585.34;6292751;27;97263;-75
2022/04/28 12:24:45;;;;;;;;;5.00;4.00;;;;;27.34;16.65;99578.88;6311975;27;98092;-74
2022/04/28 12:27:53;;;;;;;;;4.00;4.00;;;;;26.98;17.04;99573.38;6311162;27;97430;-73
2022/04/28 12:30:56;;;;;;;;;3.20;3.20;;;;;26.73;17.28;99569.25;6310661;27;97010;-74
2022/04/28 12:34:12;;;;;;;;;4.00;3.00;;;;;26.72;17.76;99564.84;6288663;27;96641;-75
2022/04/28 12:37:25;;;;;;;;;3.00;3.00;;;;;27.08;17.90;99571.19;6292126;27;96633;-75
2022/04/28 12:40:37;;;;;;;;;4.20;4.00;;;;;27.44;17.73;99562.81;6311730;27;97411;-75
2022/04/28 12:43:42;;;;;;;;;3.80;3.80;;;;;27.71;18.60;99569.34;6289713;27;98089;-75
2022/04/28 12:46:46;;;;;;;;;3.20;3.00;;;;;27.77;17.46;99568.88;6276083;27;97776;-75
2022/04/28 12:49:50;;;;;;;;;5.00;5.00;;;;;27.63;17.32;99557.09;6277515;27;96981;-75
2022/04/28 12:52:54;;;;;;;;;4.20;4.00;;;;;27.46;18.15;99560.56;6276410;27;96530;-75
2022/04/28 12:56:03;;;;;;;;;5.00;4.40;;;;;27.13;18.13;99551.69;6284688;27;97059;-75
2022/04/28 12:59:09;;;;;;;;;5.20;4.00;;;;;26.93;18.20;99548.59;6275261;27;96920;-74
2022/04/28 13:02:12;;;;;;;;;5.00;4.00;;;;;26.77;18.55;99556.44;6293203;27;97017;-75
2022/04/28 13:05:19;;;;;;;;;4.00;4.00;;;;;26.55;18.47;99546.13;6312602;27;96833;-75
2022/04/28 13:08:38;;;;;;;;;6.00;4.60;;;;;26.33;18.39;99559.91;6286144;27;97608;-74
2022/04/28 13:11:43;;;;;;;;;3.00;3.00;;;;;26.12;18.74;99558.63;6286144;27;96751;-75
2022/04/28 13:14:46;;;;;;;;;4.00;3.00;;;;;25.82;18.18;99554.53;6286283;27;96343;-75
2022/04/28 13:17:49;;;;;;;;;4.00;4.00;;;;;25.57;18.35;99552.25;6287345;27;97968;-74
2022/04/28 13:20:54;;;;;;;;;4.40;4.00;;;;;25.28;18.84;99546.94;6287386;27;96830;-74
2022/04/28 13:23:59;;;;;;;;;3.00;3.00;;;;;25.08;19.04;99539.00;6297947;27;97155;-75
2022/04/28 13:27:02;;;;;;;;;4.00;4.00;;;;;25.01;19.21;99545.75;6305671;27;97580;-74
2022/04/28 13:30:07;;;;;;;;;4.00;4.00;;;;;24.94;19.98;99545.28;6275773;27;98651;-74
2022/04/28 13:33:11;;;;;;;;;3.60;3.00;;;;;24.86;19.55;99547.88;6305656;27;97521;-75
2022/04/28 13:36:16;;;;;;;;;3.00;3.00;;;;;25.19;19.26;99540.47;6275960;27;98716;-73
2022/04/28 13:39:20;;;;;;;;;3.80;3.80;;;;;25.58;19.50;99538.16;6278389;27;98141;-75
2022/04/28 13:42:23;;;;;;;;;5.00;4.00;;;;;25.70;17.96;99530.19;6305983;27;96643;-74
2022/04/28 13:45:26;;;;;;;;;3.50;3.00;;;;;25.79;18.54;99544.13;6292455;27;97088;-74
2022/04/28 13:48:31;;;;;;;;;4.40;4.00;;;;;25.87;18.77;99548.91;6272783;27;98850;-73
2022/04/28 13:51:37;;;;;;;;;4.00;4.00;;;;;25.53;18.73;99543.72;6310542;27;97537;-73
2022/04/28 13:54:40;;;;;;;;;4.00;4.00;;;;;25.43;19.14;99541.16;6315063;27;96757;-75
2022/04/28 13:57:44;;;;;;;;;4.00;3.75;;;;;25.27;19.49;99537.84;6315543;27;97543;-75
2022/04/28 14:00:50;;;;;;;;;4.00;4.00;;;;;25.13;19.91;99538.91;6296352;27;96882;-74
2022/04/28 14:03:56;;;;;;;;;5.00;5.00;;;;;24.74;20.14;99509.72;6316824;27;97737;-74
2022/04/28 14:07:01;;;;;;;;;3.40;3.40;;;;;24.88;20.07;99543.72;6291062;27;97495;-75
2022/04/28 14:10:05;;;;;;;;;4.00;4.00;;;;;24.74;20.62;99542.00;6272654;27;99719;-73
2022/04/28 14:13:09;;;;;;;;;4.00;4.00;;;;;24.67;21.17;99544.31;6271653;27;97343;-74
2022/04/28 14:16:12;;;;;;;;;5.00;4.00;;;;;24.60;21.08;99541.91;6290196;27;96566;-74
2022/04/28 14:19:16;;;;;;;;;5.00;5.00;;;;;24.35;21.06;99529.31;6288154;27;96823;-74
2022/04/28 14:22:21;;;;;;;;;5.00;5.00;;;;;24.41;21.33;99550.19;6303063;27;97458;-72
2022/04/28 14:25:24;;;;;;;;;4.00;3.40;;;;;24.44;21.69;99555.09;6279647;27;98788;-75
2022/04/28 14:28:27;;;;;;;;;5.60;5.00;;;;;24.37;21.32;99551.91;6296772;27;97423;-73
2022/04/28 14:31:31;;;;;;;;;3.50;3.00;;;;;24.31;21.93;99552.25;6297173;27;98470;-74
2022/04/28 14:34:55;;;;;;;;;4.80;4.80;;;;;24.35;21.26;99551.34;6297417;27;97630;-74
2022/04/28 14:37:59;;;;;;;;;6.00;6.00;;;;;24.33;21.70;99539.00;6301714;27;97393;-74
2022/04/28 14:41:03;;;;;;;;;4.80;4.40;;;;;24.59;21.10;99549.38;6289879;27;97509;-74
2022/04/28 14:44:06;;;;;;;;;6.60;6.00;;;;;24.83;22.17;99535.50;6270908;27;99457;-75
2022/04/28 14:47:17;;;;;;;;;4.60;4.60;;;;;24.99;21.37;99533.34;6289530;27;97510;-75
2022/04/28 14:53:44;;;;;;;;;5.00;4.00;;;;;25.12;20.34;99535.34;6305579;27;96738;-73
2022/04/28 14:56:47;;;;;;;;;5.60;5.00;;;;;25.18;20.61;99528.63;6299972;27;97029;-73
2022/04/28 14:59:50;;;;;;;;;6.00;6.00;;;;;24.98;20.77;99513.22;6302034;27;97165;-74
2022/04/28 15:02:57;;;;;;;;;5.00;5.00;;;;;25.12;19.98;99531.78;6300885;27;96794;-75
2022/04/28 15:06:00;;;;;;;;;4.00;4.00;;;;;25.12;19.68;99538.09;6263106;27;97243;-74
2022/04/28 15:09:05;;;;;;;;;5.00;4.00;;;;;25.13;20.30;99516.84;6266486;27;96828;-74
2022/04/28 15:12:09;;;;;;;;;7.00;6.00;;;;;25.09;19.91;99502.00;6303444;27;97253;-74
2022/04/28 15:15:14;;;;;;;;;7.00;7.00;;;;;25.36;19.84;99526.94;6285809;27;97538;-74
2022/04/28 15:18:17;;;;;;;;;6.00;5.00;;;;;25.33;19.33;99531.13;6293721;27;96703;-74
2022/04/28 15:21:21;;;;;;;;;7.00;5.00;;;;;25.30;19.71;99528.16;6272745;27;97402;-74